Terminal Aerodrome Forecast
Issued by NWS

Home | Current Version | Previous Version | Text Only | Print | Product List | Glossary On
Versions: 1 2 3 4 5 6 7 8 9 10 11 12 13 14 15 16 17 18
000
FTUS44 KLIX 010601 AAA
TAFHUM
TAF AMD
KHUM 010601Z 0106/0206 00000KT P6SM SKC
      TEMPO 0109/0113 4SM BR
     FM011500 15007KT P6SM SCT035 BKN090=

USA.gov is the U.S. government's official web portal to all federal, state and local government web resources and services.